Terminal Aerodrome Forecast
Issued by NWS Paducah, KY

Home | Current Version | Previous Version | Text Only | Print | Product List | Glossary On
Versions: 1 2 3 4 5 6 7 8 9 10 11 12 13 14 15 16 17 18 19 20 21 22 23 24 25 26 27
346
FTUS43 KPAH 170851 AAA
TAFEVV
TAF AMD
KEVV 170851Z 1709/1806 00000KT 6SM BR BKN008
      TEMPO 1709/1712 5SM BR SCT008
     FM171500 14007KT P6SM SCT250
     FM171800 16009KT P6SM SCT060 BKN090
     FM172100 17011G17KT P6SM SCT030 OVC060
     FM180300 19013G23KT P6SM SCT015 OVC030=

USA.gov is the U.S. government's official web portal to all federal, state and local government web resources and services.